createdAt,value
2022-12-08T00:00:46.712Z,33.75
2022-12-08T00:03:19.207Z,33.63
2022-12-08T00:06:01.859Z,31.55
2022-12-08T00:08:43.879Z,27.15
2022-12-08T00:11:15.009Z,34.55
2022-12-08T00:13:44.759Z,30.50
2022-12-08T00:16:14.819Z,34.65
2022-12-08T00:18:47.042Z,32.25
2022-12-08T00:21:16.634Z,26.73
2022-12-08T00:23:46.229Z,30.17
2022-12-08T00:26:15.806Z,33.15
2022-12-08T00:28:45.360Z,29.55
2022-12-08T00:31:15.261Z,31.52
2022-12-08T00:33:47.513Z,29.35
2022-12-08T00:36:17.738Z,29.33
2022-12-08T00:38:48.419Z,30.08
2022-12-08T00:41:19.006Z,33.80
2022-12-08T00:43:48.573Z,28.38
2022-12-08T00:46:18.267Z,28.63
2022-12-08T00:48:50.432Z,29.10
2022-12-08T00:51:20.071Z,26.45
2022-12-08T00:53:49.642Z,27.13
2022-12-08T00:56:19.291Z,26.25
2022-12-08T00:58:49.985Z,26.52
2022-12-08T01:01:19.826Z,28.10
2022-12-08T01:03:52.171Z,27.33
2022-12-08T01:06:21.860Z,28.77
2022-12-08T01:08:51.527Z,28.52
2022-12-08T01:11:22.328Z,27.58
2022-12-08T01:13:52.135Z,29.42
2022-12-08T01:16:23.006Z,29.17
2022-12-08T01:18:55.355Z,27.17
2022-12-08T01:21:24.986Z,27.50
2022-12-08T01:23:54.806Z,35.92
2022-12-08T01:26:24.898Z,32.22
2022-12-08T01:28:54.516Z,28.05
2022-12-08T01:31:25.013Z,27.38
2022-12-08T01:33:58.975Z,32.35
2022-12-08T01:36:30.251Z,28.55
2022-12-08T01:39:01.305Z,26.55
2022-12-08T01:41:33.400Z,31.60
2022-12-08T01:44:04.609Z,34.88
2022-12-08T01:46:35.936Z,27.38
2022-12-08T01:49:12.723Z,30.75
2022-12-08T01:51:47.106Z,34.25
2022-12-08T01:54:17.048Z,29.55
2022-12-08T01:56:52.428Z,30.48
2022-12-08T01:59:22.200Z,30.20
2022-12-08T02:01:53.885Z,36.60
2022-12-08T02:04:26.155Z,32.20
2022-12-08T02:06:56.560Z,37.67
2022-12-08T02:09:27.649Z,35.22
2022-12-08T02:11:59.044Z,38.22
2022-12-08T02:14:28.980Z,34.80
2022-12-08T02:17:04.480Z,36.90
2022-12-08T02:19:59.713Z,35.38
2022-12-08T02:22:33.151Z,32.78
2022-12-08T02:25:08.698Z,36.30
2022-12-08T02:27:45.822Z,40.15
2022-12-08T02:30:21.934Z,37.40
2022-12-08T02:33:19.008Z,35.75
2022-12-08T02:35:58.151Z,37.70
2022-12-08T02:38:34.598Z,36.05
2022-12-08T02:41:12.023Z,34.38
2022-12-08T02:43:45.140Z,31.33
2022-12-08T02:46:18.566Z,32.63
2022-12-08T02:48:48.233Z,31.52
2022-12-08T02:51:20.744Z,32.42
2022-12-08T02:53:50.943Z,33.15
2022-12-08T02:56:33.915Z,39.58
2022-12-08T02:59:15.189Z,33.17
2022-12-08T03:01:58.498Z,31.95
2022-12-08T03:04:34.048Z,36.25
2022-12-08T03:07:09.792Z,27.92
2022-12-08T03:09:43.115Z,31.33
2022-12-08T03:12:17.055Z,31.23
2022-12-08T03:14:49.765Z,25.45
2022-12-08T03:17:20.404Z,22.73
2022-12-08T03:19:51.124Z,26.90
2022-12-08T03:22:26.836Z,22.52
2022-12-08T03:24:56.855Z,24.25
2022-12-08T03:27:28.618Z,25.52
2022-12-08T03:29:59.526Z,20.20
2022-12-08T03:32:33.118Z,18.92
2022-12-08T03:35:04.971Z,20.05
2022-12-08T03:37:37.634Z,19.10
2022-12-08T03:40:08.203Z,17.15
2022-12-08T03:42:37.788Z,20.02
2022-12-08T03:45:08.237Z,17.25
2022-12-08T03:47:37.797Z,18.58
2022-12-08T03:50:08.805Z,22.08
2022-12-08T03:52:41.020Z,17.55
2022-12-08T03:55:11.135Z,19.25
2022-12-08T03:57:40.895Z,20.55
2022-12-08T04:00:14.984Z,18.98
2022-12-08T04:02:44.822Z,19.27
2022-12-08T04:05:14.420Z,17.50
2022-12-08T04:07:46.660Z,18.33
2022-12-08T04:10:16.340Z,17.02
2022-12-08T04:12:45.880Z,14.30
2022-12-08T04:15:15.474Z,18.00
2022-12-08T04:17:45.063Z,17.88
2022-12-08T04:20:15.000Z,17.13
2022-12-08T04:22:47.226Z,20.60
2022-12-08T04:25:17.106Z,18.58
2022-12-08T04:27:46.697Z,19.73
2022-12-08T04:30:16.545Z,17.83
2022-12-08T04:32:47.653Z,18.65
2022-12-08T04:35:17.486Z,16.52
2022-12-08T04:37:49.700Z,19.00
2022-12-08T04:40:19.320Z,21.65
2022-12-08T04:42:49.102Z,17.45
2022-12-08T04:45:19.145Z,18.55
2022-12-08T04:47:49.474Z,19.55
2022-12-08T04:50:19.235Z,18.05
2022-12-08T04:52:51.453Z,23.75
2022-12-08T04:55:21.145Z,21.95
2022-12-08T04:57:51.018Z,17.85
2022-12-08T05:00:21.488Z,18.77
2022-12-08T05:02:51.130Z,19.75
2022-12-08T05:05:20.935Z,19.90
2022-12-08T05:07:53.746Z,18.63
2022-12-08T05:10:23.390Z,20.33
2022-12-08T05:12:52.954Z,21.45
2022-12-08T05:15:22.674Z,22.15
2022-12-08T05:17:52.361Z,22.95
2022-12-08T05:20:22.390Z,18.98
2022-12-08T05:22:54.621Z,20.70
2022-12-08T05:25:24.199Z,21.20
2022-12-08T05:28:06.218Z,23.75
2022-12-08T05:30:41.273Z,23.58
2022-12-08T05:33:11.074Z,23.05
2022-12-08T05:35:40.648Z,23.27
2022-12-08T05:38:13.169Z,24.10
2022-12-08T05:40:43.580Z,23.23
2022-12-08T05:43:13.643Z,26.40
2022-12-08T05:45:43.349Z,30.63
2022-12-08T05:48:13.146Z,25.42
2022-12-08T05:50:42.811Z,29.08
2022-12-08T05:53:15.003Z,32.63
2022-12-08T05:55:44.534Z,33.60
2022-12-08T05:58:15.443Z,33.38
2022-12-08T06:00:45.235Z,33.67
2022-12-08T06:03:15.414Z,35.25
2022-12-08T06:05:45.798Z,32.47
2022-12-08T06:08:18.193Z,34.97
2022-12-08T06:10:48.311Z,33.08
2022-12-08T06:13:18.067Z,35.08
2022-12-08T06:15:47.599Z,38.30
2022-12-08T06:18:17.143Z,37.13
2022-12-08T06:20:46.715Z,38.08
2022-12-08T06:23:18.845Z,42.60
2022-12-08T06:25:48.467Z,35.58
2022-12-08T06:28:18.004Z,34.15
2022-12-08T06:30:47.613Z,35.33
2022-12-08T06:33:17.398Z,34.90
2022-12-08T06:35:47.004Z,35.55
2022-12-08T06:38:19.140Z,34.08
2022-12-08T06:40:56.201Z,32.95
2022-12-08T06:43:26.256Z,32.80
2022-12-08T06:45:55.914Z,31.65
2022-12-08T06:48:26.050Z,31.70
2022-12-08T06:50:55.922Z,32.08
2022-12-08T06:53:28.051Z,32.00
2022-12-08T06:55:59.795Z,30.23
2022-12-08T06:58:29.720Z,28.95
2022-12-08T07:00:59.319Z,28.45
2022-12-08T07:03:28.923Z,24.95
2022-12-08T07:06:03.742Z,27.83
2022-12-08T07:08:37.766Z,27.42
2022-12-08T07:11:15.278Z,30.45
2022-12-08T07:13:47.825Z,29.15
2022-12-08T07:16:17.443Z,27.77
2022-12-08T07:18:47.080Z,31.75
2022-12-08T07:21:17.599Z,26.70
2022-12-08T07:23:57.345Z,27.17
2022-12-08T07:26:28.155Z,34.05
2022-12-08T07:28:57.720Z,30.50
2022-12-08T07:31:28.970Z,25.90
2022-12-08T07:33:59.288Z,31.92
2022-12-08T07:36:29.288Z,30.23
2022-12-08T07:39:01.636Z,33.42
2022-12-08T07:41:31.199Z,36.58
2022-12-08T07:44:00.783Z,30.10
2022-12-08T07:46:30.413Z,30.00
2022-12-08T07:49:00.112Z,30.02
2022-12-08T07:51:29.595Z,30.00
2022-12-08T07:54:01.725Z,32.40
2022-12-08T07:56:31.316Z,28.02
2022-12-08T07:59:00.856Z,34.35
2022-12-08T08:01:32.130Z,29.80
2022-12-08T08:04:04.570Z,31.48
2022-12-08T08:06:34.797Z,33.05
2022-12-08T08:09:07.169Z,31.92
2022-12-08T08:11:36.728Z,35.72
2022-12-08T08:14:06.599Z,28.52
2022-12-08T08:16:38.607Z,25.45
2022-12-08T08:19:08.491Z,22.92
2022-12-08T08:21:46.292Z,22.10
2022-12-08T08:24:18.725Z,22.23
2022-12-08T08:26:48.299Z,22.73
2022-12-08T08:29:17.894Z,21.67
2022-12-08T08:31:47.466Z,26.95
2022-12-08T08:34:17.054Z,23.42
2022-12-08T08:36:46.653Z,23.00
2022-12-08T08:39:18.977Z,28.38
2022-12-08T08:41:48.584Z,25.23
2022-12-08T08:44:18.323Z,26.10
2022-12-08T08:46:47.968Z,24.60
2022-12-08T08:49:18.739Z,30.08
2022-12-08T08:51:48.377Z,29.08
2022-12-08T08:54:20.556Z,28.35
2022-12-08T08:56:50.877Z,33.42
2022-12-08T08:59:20.380Z,34.33
2022-12-08T09:01:50.025Z,30.50
2022-12-08T09:04:19.732Z,32.45
2022-12-08T09:06:49.595Z,32.58
2022-12-08T09:09:21.748Z,28.10
2022-12-08T09:11:51.300Z,33.88
2022-12-08T09:14:21.064Z,33.35
2022-12-08T09:16:50.640Z,33.08
2022-12-08T09:19:20.242Z,30.27
2022-12-08T09:21:49.835Z,32.03
2022-12-08T09:24:23.227Z,29.45
2022-12-08T09:26:52.821Z,31.83
2022-12-08T09:29:22.485Z,34.00
2022-12-08T09:31:52.302Z,31.85
2022-12-08T09:34:22.022Z,31.88
2022-12-08T09:36:51.673Z,31.42
2022-12-08T09:39:23.820Z,31.90
2022-12-08T09:41:56.059Z,27.92
2022-12-08T09:44:41.016Z,33.38
2022-12-08T09:47:24.021Z,30.65
2022-12-08T09:50:02.232Z,33.17
2022-12-08T09:52:35.916Z,30.40
2022-12-08T09:55:15.340Z,27.55
2022-12-08T09:57:44.891Z,27.73
2022-12-08T10:00:16.256Z,21.23
2022-12-08T10:02:47.255Z,24.05
2022-12-08T10:05:17.670Z,26.17
2022-12-08T10:07:50.659Z,27.38
2022-12-08T10:10:31.340Z,21.70
2022-12-08T10:13:06.454Z,22.00
2022-12-08T10:15:43.486Z,25.55
2022-12-08T10:18:17.300Z,21.13
2022-12-08T10:20:49.516Z,22.33
2022-12-08T10:23:25.574Z,24.35
2022-12-08T10:26:02.482Z,19.67
2022-12-08T10:28:32.152Z,17.90
2022-12-08T10:31:01.750Z,21.80
2022-12-08T10:33:32.247Z,19.77
2022-12-08T10:36:04.906Z,18.33
2022-12-08T10:38:36.541Z,20.17
2022-12-08T10:41:18.207Z,16.55
2022-12-08T10:43:50.537Z,16.40
2022-12-08T10:46:22.397Z,17.98
2022-12-08T10:48:54.408Z,17.20
2022-12-08T10:51:30.552Z,22.73
2022-12-08T10:54:00.176Z,22.08
2022-12-08T10:56:33.516Z,17.77
2022-12-08T10:59:19.460Z,17.77
2022-12-08T11:01:50.411Z,14.05
2022-12-08T11:04:21.653Z,14.60
2022-12-08T11:06:52.725Z,15.68
2022-12-08T11:09:40.421Z,16.65
2022-12-08T11:12:16.271Z,16.08
2022-12-08T11:14:53.987Z,17.10
2022-12-08T11:17:28.512Z,18.40
2022-12-08T11:20:00.203Z,22.75
2022-12-08T11:22:33.939Z,18.00
2022-12-08T11:25:06.070Z,18.08
2022-12-08T11:27:39.957Z,18.55
2022-12-08T11:30:18.364Z,21.25
2022-12-08T11:32:50.814Z,18.30
2022-12-08T11:35:26.088Z,25.88
2022-12-08T11:38:07.871Z,19.17
2022-12-08T11:40:47.957Z,20.30
2022-12-08T11:43:23.530Z,23.15
2022-12-08T11:45:59.233Z,18.70
2022-12-08T11:48:34.719Z,21.70
2022-12-08T11:51:08.173Z,19.67
2022-12-08T11:53:50.435Z,21.95
2022-12-08T11:56:23.567Z,21.40
2022-12-08T11:58:57.681Z,19.77
2022-12-08T12:01:29.398Z,17.45
2022-12-08T12:04:04.916Z,15.82
2022-12-08T12:06:55.773Z,21.67
2022-12-08T12:09:34.884Z,19.30
2022-12-08T12:12:16.733Z,20.48
2022-12-08T12:15:18.712Z,22.00
2022-12-08T12:17:50.836Z,17.95
2022-12-08T12:20:24.242Z,16.90
2022-12-08T12:22:59.548Z,16.05
2022-12-08T12:25:30.089Z,17.50
2022-12-08T12:28:03.160Z,20.42
2022-12-08T12:30:53.131Z,22.40
2022-12-08T12:33:23.433Z,18.38
2022-12-08T12:35:53.064Z,18.33
2022-12-08T12:38:38.419Z,17.67
2022-12-08T12:41:09.088Z,18.15
2022-12-08T12:43:41.306Z,16.60
2022-12-08T12:46:45.280Z,16.65
2022-12-08T12:49:53.355Z,16.00
2022-12-08T12:52:39.646Z,18.35
2022-12-08T12:55:44.373Z,20.98
2022-12-08T12:58:25.081Z,16.70
2022-12-08T13:01:29.676Z,19.50
2022-12-08T13:04:09.663Z,21.13
2022-12-08T13:06:42.907Z,24.35
2022-12-08T13:09:23.709Z,13.77
2022-12-08T13:11:55.486Z,20.35
2022-12-08T13:14:33.799Z,16.63
2022-12-08T13:17:04.511Z,15.90
2022-12-08T13:19:38.885Z,15.70
2022-12-08T13:22:38.332Z,15.52
2022-12-08T13:25:37.757Z,16.85
2022-12-08T13:28:16.731Z,15.68
2022-12-08T13:30:48.034Z,14.85
2022-12-08T13:33:21.028Z,19.73
2022-12-08T13:35:58.005Z,20.42
2022-12-08T13:38:31.030Z,20.65
2022-12-08T13:41:03.623Z,22.35
2022-12-08T13:43:51.313Z,16.55
2022-12-08T13:53:49.516Z,15.93
2022-12-08T14:01:01.558Z,15.00
2022-12-08T14:03:31.490Z,15.18
2022-12-08T14:06:13.422Z,16.17
2022-12-08T14:09:06.665Z,17.73
2022-12-08T14:11:39.420Z,16.33
2022-12-08T14:14:11.703Z,17.05
2022-12-08T14:16:42.658Z,14.07
2022-12-08T14:19:20.540Z,18.52
2022-12-08T14:21:55.899Z,14.07
2022-12-08T14:24:26.220Z,19.23
2022-12-08T14:26:58.632Z,18.30
2022-12-08T14:29:40.918Z,15.77
2022-12-08T14:32:23.776Z,17.00
2022-12-08T14:34:57.947Z,18.05
2022-12-08T14:40:02.553Z,15.85
2022-12-08T14:42:32.882Z,19.17
2022-12-08T14:45:05.703Z,19.13
2022-12-08T14:47:36.927Z,18.77
2022-12-08T14:50:28.791Z,15.32
2022-12-08T14:53:01.508Z,20.27
2022-12-08T14:55:31.804Z,19.75
2022-12-08T14:58:01.418Z,13.40
2022-12-08T15:00:31.400Z,15.98
2022-12-08T15:03:01.059Z,14.45
2022-12-08T15:05:32.640Z,18.00
2022-12-08T15:08:06.458Z,12.35
2022-12-08T15:10:38.099Z,17.35
2022-12-08T15:13:10.302Z,20.95
2022-12-08T15:15:51.728Z,17.55
2022-12-08T15:18:23.035Z,14.77
2022-12-08T15:20:54.470Z,19.60
2022-12-08T15:23:29.639Z,19.05
2022-12-08T15:25:59.646Z,16.35
2022-12-08T15:28:31.453Z,17.90
2022-12-08T15:31:01.644Z,15.32
2022-12-08T15:33:31.226Z,14.45
2022-12-08T15:36:00.789Z,18.48
2022-12-08T15:38:33.055Z,19.10
2022-12-08T15:41:03.704Z,21.83
2022-12-08T15:43:34.436Z,20.27
2022-12-08T15:46:04.017Z,18.55
2022-12-08T15:48:33.605Z,18.00
2022-12-08T15:51:03.291Z,17.42
2022-12-08T15:53:35.424Z,16.35
2022-12-08T15:58:58.058Z,18.85
2022-12-08T16:01:28.364Z,13.77
2022-12-08T16:07:20.793Z,21.55
2022-12-08T16:09:44.018Z,17.70
2022-12-08T16:12:56.902Z,16.55
2022-12-08T16:15:53.468Z,18.27
2022-12-08T16:18:10.397Z,22.25
2022-12-08T16:21:06.114Z,15.25
2022-12-08T16:23:42.436Z,17.17
2022-12-08T16:26:35.708Z,16.00
2022-12-08T16:29:07.634Z,16.97
2022-12-08T16:31:37.279Z,25.10
2022-12-08T16:34:06.892Z,20.23
2022-12-08T16:36:36.489Z,16.35
2022-12-08T16:39:06.648Z,13.98
2022-12-08T16:41:51.324Z,15.98
2022-12-08T16:44:20.876Z,18.90
2022-12-08T16:46:50.434Z,11.50
2022-12-08T16:49:19.996Z,14.65
2022-12-08T16:51:49.569Z,12.75
2022-12-08T16:54:19.115Z,17.77
2022-12-08T16:56:51.330Z,16.45
2022-12-08T16:59:20.843Z,14.73
2022-12-08T17:01:50.386Z,15.95
2022-12-08T17:04:35.351Z,14.48
2022-12-08T17:07:05.110Z,14.65
2022-12-08T17:09:35.031Z,17.90
2022-12-08T17:12:07.743Z,18.30
2022-12-08T17:14:37.727Z,17.70
2022-12-08T17:17:07.646Z,16.45
2022-12-08T17:19:37.343Z,16.42
2022-12-08T17:22:06.940Z,16.27
2022-12-08T17:24:36.537Z,20.70
2022-12-08T17:27:08.696Z,14.95
2022-12-08T17:29:38.292Z,17.25
2022-12-08T17:32:08.685Z,17.63
2022-12-08T17:34:38.308Z,19.00
2022-12-08T17:37:07.902Z,15.50
2022-12-08T17:39:37.503Z,18.27
2022-12-08T17:42:09.976Z,16.05
2022-12-08T17:44:39.529Z,19.17
2022-12-08T17:47:09.183Z,16.08
2022-12-08T17:49:38.770Z,15.38
2022-12-08T17:52:09.837Z,17.92
2022-12-08T17:54:39.628Z,16.00
2022-12-08T17:57:11.844Z,55.28
2022-12-08T17:59:41.394Z,24.27
2022-12-08T18:02:13.596Z,15.98
2022-12-08T18:04:43.177Z,15.57
2022-12-08T18:07:12.740Z,16.23
2022-12-08T18:09:42.309Z,17.50
2022-12-08T18:12:18.032Z,17.48
2022-12-08T18:14:51.695Z,15.88
2022-12-08T18:17:21.452Z,18.23
2022-12-08T18:19:51.071Z,18.33
2022-12-08T18:22:20.670Z,18.10
2022-12-08T18:24:50.275Z,15.20
2022-12-08T18:27:22.476Z,19.88
2022-12-08T18:29:52.019Z,13.18
2022-12-08T18:32:23.631Z,13.02
2022-12-08T18:34:53.604Z,17.10
2022-12-08T18:37:23.207Z,15.27
2022-12-08T18:39:52.797Z,18.77
2022-12-08T18:42:28.362Z,14.65
2022-12-08T18:45:02.820Z,23.05
2022-12-08T18:50:01.783Z,17.27
2022-12-08T18:52:32.507Z,14.88
2022-12-08T18:55:09.511Z,19.40
2022-12-08T18:57:43.657Z,18.63
2022-12-08T19:00:15.799Z,16.60
2022-12-08T19:02:45.664Z,18.58
2022-12-08T19:05:16.500Z,19.00
2022-12-08T19:07:46.603Z,16.58
2022-12-08T19:10:16.300Z,17.40
2022-12-08T19:12:48.688Z,17.42
2022-12-08T19:15:18.292Z,16.20
2022-12-08T19:17:47.987Z,18.33
2022-12-08T19:20:17.657Z,15.77
2022-12-08T19:22:47.274Z,13.70
2022-12-08T19:25:16.839Z,18.00
2022-12-08T19:27:48.994Z,17.80
2022-12-08T19:30:19.036Z,17.02
2022-12-08T19:32:48.660Z,19.23
2022-12-08T19:35:18.203Z,17.48
2022-12-08T19:37:47.787Z,22.50
2022-12-08T19:40:31.696Z,19.38
2022-12-08T19:43:16.334Z,20.98
2022-12-08T19:45:45.971Z,20.48
2022-12-08T19:48:15.621Z,20.13
2022-12-08T19:50:45.201Z,19.15
2022-12-08T19:53:17.237Z,19.38
2022-12-08T19:55:47.271Z,21.77
2022-12-08T19:58:19.777Z,17.40
2022-12-08T20:00:49.880Z,20.52
2022-12-08T20:03:21.038Z,23.65
2022-12-08T20:05:53.296Z,18.75
2022-12-08T20:08:22.947Z,19.80
2022-12-08T20:10:55.950Z,23.33
2022-12-08T20:13:40.621Z,17.73
2022-12-08T20:16:11.435Z,19.75
2022-12-08T20:18:42.173Z,21.83
2022-12-08T20:21:12.786Z,22.73
2022-12-08T20:23:42.416Z,21.55
2022-12-08T20:26:15.387Z,20.90
2022-12-08T20:28:47.607Z,48.55
2022-12-08T20:31:21.231Z,40.58
2022-12-08T20:33:51.246Z,22.40
2022-12-08T20:36:22.158Z,20.52
2022-12-08T20:38:53.586Z,27.33
2022-12-08T20:41:25.299Z,19.27
2022-12-08T20:43:57.556Z,19.23
2022-12-08T20:46:27.220Z,22.27
2022-12-08T20:49:01.221Z,23.25
2022-12-08T20:51:32.199Z,20.15
2022-12-08T20:54:02.471Z,22.27
2022-12-08T20:56:32.419Z,21.77
2022-12-08T20:59:04.641Z,20.35
2022-12-08T21:01:34.487Z,24.85
2022-12-08T21:04:04.446Z,20.52
2022-12-08T21:06:34.167Z,20.23
2022-12-08T21:09:03.871Z,20.35
2022-12-08T21:11:33.796Z,20.67
2022-12-08T21:14:06.855Z,21.70
2022-12-08T21:16:36.651Z,21.95
2022-12-08T21:19:06.676Z,21.15
2022-12-08T21:21:36.570Z,24.42
2022-12-08T21:24:06.919Z,23.20
2022-12-08T21:26:36.593Z,25.38
2022-12-08T21:29:08.874Z,23.65
2022-12-08T21:31:38.649Z,21.02
2022-12-08T21:34:08.375Z,24.65
2022-12-08T21:36:38.173Z,19.95
2022-12-08T21:39:12.856Z,25.90
2022-12-08T21:41:55.086Z,25.80
2022-12-08T21:44:27.457Z,24.45
2022-12-08T21:46:57.157Z,28.45
2022-12-08T21:49:26.928Z,22.45
2022-12-08T21:51:56.705Z,22.15
2022-12-08T21:54:26.550Z,21.77
2022-12-08T21:56:56.194Z,23.92
2022-12-08T21:59:28.489Z,21.10
2022-12-08T22:01:58.607Z,26.52
2022-12-08T22:04:28.574Z,22.67
2022-12-08T22:06:58.409Z,21.95
2022-12-08T22:09:28.169Z,24.95
2022-12-08T22:11:59.050Z,22.27
2022-12-08T22:14:31.365Z,22.23
2022-12-08T22:17:01.279Z,24.88
2022-12-08T22:19:30.984Z,21.70
2022-12-08T22:22:00.762Z,23.55
2022-12-08T22:24:32.966Z,25.40
2022-12-08T22:27:02.848Z,24.38
2022-12-08T22:29:35.286Z,29.48
2022-12-08T22:32:05.237Z,21.98
2022-12-08T22:34:35.148Z,25.90
2022-12-08T22:37:04.893Z,27.85
2022-12-08T22:39:35.845Z,29.45
2022-12-08T22:42:05.702Z,24.45
2022-12-08T22:44:38.099Z,24.38
2022-12-08T22:47:08.278Z,25.88
2022-12-08T22:49:38.142Z,24.98
2022-12-08T22:52:08.255Z,30.08
2022-12-08T22:54:38.428Z,24.38
2022-12-08T22:57:08.049Z,23.83
2022-12-08T22:59:40.972Z,24.25
2022-12-08T23:02:10.949Z,27.30
2022-12-08T23:04:40.817Z,27.02
2022-12-08T23:07:10.678Z,23.08
2022-12-08T23:09:40.249Z,22.00
2022-12-08T23:12:10.176Z,25.88
2022-12-08T23:14:42.381Z,24.25
2022-12-08T23:17:12.081Z,25.38
2022-12-08T23:19:42.018Z,27.45
2022-12-08T23:22:11.611Z,25.02
2022-12-08T23:24:41.296Z,24.35
2022-12-08T23:27:10.836Z,28.95
2022-12-08T23:29:43.039Z,24.90
2022-12-08T23:32:12.711Z,26.77
2022-12-08T23:34:42.637Z,29.02
2022-12-08T23:37:12.236Z,30.80
2022-12-08T23:39:41.844Z,26.45
2022-12-08T23:42:11.545Z,23.65
2022-12-08T23:44:43.823Z,29.02
2022-12-08T23:47:13.506Z,24.75
2022-12-08T23:49:43.145Z,24.17
2022-12-08T23:52:14.372Z,26.58
2022-12-08T23:54:44.958Z,24.10
2022-12-08T23:57:14.746Z,25.70
2022-12-08T23:59:47.283Z,23.15
